sensor_id;sensor_type;location;lat;lon;timestamp;temperature;humidity
1678;DHT22;6034;46.864;15.216;2022-09-09T05:00:38;16.00;99.90
1678;DHT22;6034;46.864;15.216;2022-09-09T05:03:05;16.00;99.90
1678;DHT22;6034;46.864;15.216;2022-09-09T05:05:34;16.10;99.90
1678;DHT22;6034;46.864;15.216;2022-09-09T05:08:07;16.10;99.90
1678;DHT22;6034;46.864;15.216;2022-09-09T05:10:48;16.00;99.90
1678;DHT22;6034;46.864;15.216;2022-09-09T05:13:19;16.00;99.90
1678;DHT22;6034;46.864;15.216;2022-09-09T05:15:53;16.10;99.90
1678;DHT22;6034;46.864;15.216;2022-09-09T05:18:21;16.10;99.90
1678;DHT22;6034;46.864;15.216;2022-09-09T05:20:49;16.10;99.90
1678;DHT22;6034;46.864;15.216;2022-09-09T05:23:16;16.10;99.90
1678;DHT22;6034;46.864;15.216;2022-09-09T05:25:43;16.20;99.90
1678;DHT22;6034;46.864;15.216;2022-09-09T05:28:12;16.20;99.90
1678;DHT22;6034;46.864;15.216;2022-09-09T05:30:39;16.20;99.90
1678;DHT22;6034;46.864;15.216;2022-09-09T05:33:08;16.20;99.90
1678;DHT22;6034;46.864;15.216;2022-09-09T05:35:35;16.20;99.90
1678;DHT22;6034;46.864;15.216;2022-09-09T05:38:03;15.90;99.90
1678;DHT22;6034;46.864;15.216;2022-09-09T05:40:30;16.20;99.90
1678;DHT22;6034;46.864;15.216;2022-09-09T05:42:59;16.10;99.90
1678;DHT22;6034;46.864;15.216;2022-09-09T05:45:26;16.20;99.90
1678;DHT22;6034;46.864;15.216;2022-09-09T05:47:54;16.20;99.90
1678;DHT22;6034;46.864;15.216;2022-09-09T05:50:22;16.20;99.90
1678;DHT22;6034;46.864;15.216;2022-09-09T05:52:49;16.30;99.90
1678;DHT22;6034;46.864;15.216;2022-09-09T05:55:16;16.20;99.90
1678;DHT22;6034;46.864;15.216;2022-09-09T05:57:47;16.20;99.90
1678;DHT22;6034;46.864;15.216;2022-09-09T06:00:15;16.30;99.90
1678;DHT22;6034;46.864;15.216;2022-09-09T06:02:42;16.30;99.90
1678;DHT22;6034;46.864;15.216;2022-09-09T06:05:09;16.30;99.90
1678;DHT22;6034;46.864;15.216;2022-09-09T06:07:38;16.30;99.90
1678;DHT22;6034;46.864;15.216;2022-09-09T06:10:07;16.30;99.90
1678;DHT22;6034;46.864;15.216;2022-09-09T06:12:34;16.30;99.90
1678;DHT22;6034;46.864;15.216;2022-09-09T06:15:01;16.40;99.90
1678;DHT22;6034;46.864;15.216;2022-09-09T06:17:29;16.40;99.90
1678;DHT22;6034;46.864;15.216;2022-09-09T06:19:56;16.50;99.90
1678;DHT22;6034;46.864;15.216;2022-09-09T06:22:23;16.30;99.90
1678;DHT22;6034;46.864;15.216;2022-09-09T06:24:51;15.80;99.90
1678;DHT22;6034;46.864;15.216;2022-09-09T06:27:18;16.40;99.90
1678;DHT22;6034;46.864;15.216;2022-09-09T06:29:46;16.50;99.90
1678;DHT22;6034;46.864;15.216;2022-09-09T06:32:13;16.50;99.90
1678;DHT22;6034;46.864;15.216;2022-09-09T06:34:40;16.50;99.90
1678;DHT22;6034;46.864;15.216;2022-09-09T06:37:07;16.60;99.90
1678;DHT22;6034;46.864;15.216;2022-09-09T06:39:34;16.60;99.90
1678;DHT22;6034;46.864;15.216;2022-09-09T06:42:02;16.60;99.90
1678;DHT22;6034;46.864;15.216;2022-09-09T06:44:29;16.60;99.90
1678;DHT22;6034;46.864;15.216;2022-09-09T06:46:59;16.60;99.90
1678;DHT22;6034;46.864;15.216;2022-09-09T06:49:26;16.70;99.90
1678;DHT22;6034;46.864;15.216;2022-09-09T06:51:52;16.80;99.90
1678;DHT22;6034;46.864;15.216;2022-09-09T06:54:19;16.80;99.90
1678;DHT22;6034;46.864;15.216;2022-09-09T06:56:47;16.80;99.90
1678;DHT22;6034;46.864;15.216;2022-09-09T06:59:16;16.80;99.90
1678;DHT22;6034;46.864;15.216;2022-09-09T07:01:43;16.90;99.90
1678;DHT22;6034;46.864;15.216;2022-09-09T07:04:14;16.90;99.90
1678;DHT22;6034;46.864;15.216;2022-09-09T07:06:41;17.00;99.90
1678;DHT22;6034;46.864;15.216;2022-09-09T07:09:10;17.00;99.90
1678;DHT22;6034;46.864;15.216;2022-09-09T07:11:38;17.00;99.90
1678;DHT22;6034;46.864;15.216;2022-09-09T07:14:06;17.00;99.90
1678;DHT22;6034;46.864;15.216;2022-09-09T07:16:35;17.00;99.90
1678;DHT22;6034;46.864;15.216;2022-09-09T07:19:03;17.00;99.90
1678;DHT22;6034;46.864;15.216;2022-09-09T07:21:30;17.10;99.90
1678;DHT22;6034;46.864;15.216;2022-09-09T07:23:57;17.10;99.90
1678;DHT22;6034;46.864;15.216;2022-09-09T07:26:24;17.20;99.90
1678;DHT22;6034;46.864;15.216;2022-09-09T07:28:52;17.20;99.90
1678;DHT22;6034;46.864;15.216;2022-09-09T07:31:19;17.10;99.90
1678;DHT22;6034;46.864;15.216;2022-09-09T07:33:48;17.10;99.90
1678;DHT22;6034;46.864;15.216;2022-09-09T07:36:16;17.10;99.90
1678;DHT22;6034;46.864;15.216;2022-09-09T07:38:44;16.90;99.90
1678;DHT22;6034;46.864;15.216;2022-09-09T07:41:12;16.90;99.90
1678;DHT22;6034;46.864;15.216;2022-09-09T07:43:39;16.90;99.90
1678;DHT22;6034;46.864;15.216;2022-09-09T07:46:06;15.30;99.90
1678;DHT22;6034;46.864;15.216;2022-09-09T07:48:34;17.10;99.90
1678;DHT22;6034;46.864;15.216;2022-09-09T07:51:08;17.10;99.90
1678;DHT22;6034;46.864;15.216;2022-09-09T07:53:36;17.10;99.90
1678;DHT22;6034;46.864;15.216;2022-09-09T07:56:04;17.00;99.90
1678;DHT22;6034;46.864;15.216;2022-09-09T07:58:31;17.00;99.90
1678;DHT22;6034;46.864;15.216;2022-09-09T08:00:58;16.80;99.90
1678;DHT22;6034;46.864;15.216;2022-09-09T08:03:25;16.80;99.90
1678;DHT22;6034;46.864;15.216;2022-09-09T08:05:52;16.80;99.90
1678;DHT22;6034;46.864;15.216;2022-09-09T08:08:21;17.00;99.90
1678;DHT22;6034;46.864;15.216;2022-09-09T08:10:47;17.20;99.90
1678;DHT22;6034;46.864;15.216;2022-09-09T08:13:14;17.20;99.90
1678;DHT22;6034;46.864;15.216;2022-09-09T08:15:43;17.30;99.90
1678;DHT22;6034;46.864;15.216;2022-09-09T08:18:10;17.30;99.90
1678;DHT22;6034;46.864;15.216;2022-09-09T08:20:37;17.40;99.90
1678;DHT22;6034;46.864;15.216;2022-09-09T08:23:04;17.40;99.90
1678;DHT22;6034;46.864;15.216;2022-09-09T08:25:33;17.40;99.90
1678;DHT22;6034;46.864;15.216;2022-09-09T08:28:00;17.50;99.90
1678;DHT22;6034;46.864;15.216;2022-09-09T08:30:27;17.60;99.90
1678;DHT22;6034;46.864;15.216;2022-09-09T08:32:56;17.60;99.90
1678;DHT22;6034;46.864;15.216;2022-09-09T08:35:25;17.70;99.90
1678;DHT22;6034;46.864;15.216;2022-09-09T08:37:53;17.70;99.90
1678;DHT22;6034;46.864;15.216;2022-09-09T08:40:21;17.70;99.90
1678;DHT22;6034;46.864;15.216;2022-09-09T08:42:52;17.60;99.90
1678;DHT22;6034;46.864;15.216;2022-09-09T08:45:24;17.60;99.90
1678;DHT22;6034;46.864;15.216;2022-09-09T08:48:03;17.60;99.90
1678;DHT22;6034;46.864;15.216;2022-09-09T08:50:36;17.70;99.90
1678;DHT22;6034;46.864;15.216;2022-09-09T08:53:04;17.70;99.90
1678;DHT22;6034;46.864;15.216;2022-09-09T08:55:35;17.60;99.90
1678;DHT22;6034;46.864;15.216;2022-09-09T08:58:09;17.60;99.90
1678;DHT22;6034;46.864;15.216;2022-09-09T09:00:40;17.70;99.90
1678;DHT22;6034;46.864;15.216;2022-09-09T09:03:12;17.50;99.90
1678;DHT22;6034;46.864;15.216;2022-09-09T09:05:44;17.50;99.90
1678;DHT22;6034;46.864;15.216;2022-09-09T09:08:14;17.30;99.90
1678;DHT22;6034;46.864;15.216;2022-09-09T09:10:46;17.90;99.90
1678;DHT22;6034;46.864;15.216;2022-09-09T09:13:20;18.20;99.90
1678;DHT22;6034;46.864;15.216;2022-09-09T09:15:54;18.70;99.90
1678;DHT22;6034;46.864;15.216;2022-09-09T09:18:25;18.80;99.90
1678;DHT22;6034;46.864;15.216;2022-09-09T09:20:58;18.90;99.90
1678;DHT22;6034;46.864;15.216;2022-09-09T09:23:31;18.90;99.90
1678;DHT22;6034;46.864;15.216;2022-09-09T09:26:05;18.80;99.90
1678;DHT22;6034;46.864;15.216;2022-09-09T09:28:36;18.50;99.90
1678;DHT22;6034;46.864;15.216;2022-09-09T09:31:05;18.80;99.90
1678;DHT22;6034;46.864;15.216;2022-09-09T09:33:36;18.80;99.90
1678;DHT22;6034;46.864;15.216;2022-09-09T09:36:06;18.60;99.90
1678;DHT22;6034;46.864;15.216;2022-09-09T09:38:35;18.80;99.90
1678;DHT22;6034;46.864;15.216;2022-09-09T09:41:02;18.90;99.90
1678;DHT22;6034;46.864;15.216;2022-09-09T09:43:30;18.90;99.90
1678;DHT22;6034;46.864;15.216;2022-09-09T09:45:58;19.00;99.90
1678;DHT22;6034;46.864;15.216;2022-09-09T09:48:26;19.00;99.90
1678;DHT22;6034;46.864;15.216;2022-09-09T09:50:54;19.20;99.90
1678;DHT22;6034;46.864;15.216;2022-09-09T09:53:24;19.20;99.90
1678;DHT22;6034;46.864;15.216;2022-09-09T09:55:55;19.00;99.90
1678;DHT22;6034;46.864;15.216;2022-09-09T09:58:22;18.90;99.90
1678;DHT22;6034;46.864;15.216;2022-09-09T10:00:50;18.90;99.90
1678;DHT22;6034;46.864;15.216;2022-09-09T10:03:25;18.90;99.90
1678;DHT22;6034;46.864;15.216;2022-09-09T10:05:57;18.70;99.90
1678;DHT22;6034;46.864;15.216;2022-09-09T10:08:28;19.00;99.90
1678;DHT22;6034;46.864;15.216;2022-09-09T10:11:09;18.90;99.90
1678;DHT22;6034;46.864;15.216;2022-09-09T10:13:47;18.90;99.90
1678;DHT22;6034;46.864;15.216;2022-09-09T10:16:27;18.80;99.90
1678;DHT22;6034;46.864;15.216;2022-09-09T10:19:05;18.90;99.90
1678;DHT22;6034;46.864;15.216;2022-09-09T10:27:21;18.80;99.90
1678;DHT22;6034;46.864;15.216;2022-09-09T10:29:59;18.90;99.90
1678;DHT22;6034;46.864;15.216;2022-09-09T10:32:38;18.90;99.90
1678;DHT22;6034;46.864;15.216;2022-09-09T10:35:12;18.90;99.90
1678;DHT22;6034;46.864;15.216;2022-09-09T10:37:41;18.80;99.90
1678;DHT22;6034;46.864;15.216;2022-09-09T10:40:15;19.00;99.90
1678;DHT22;6034;46.864;15.216;2022-09-09T10:42:45;19.10;99.90
1678;DHT22;6034;46.864;15.216;2022-09-09T10:45:15;19.10;99.90
1678;DHT22;6034;46.864;15.216;2022-09-09T10:47:49;19.20;99.90
1678;DHT22;6034;46.864;15.216;2022-09-09T10:50:40;19.10;99.90
1678;DHT22;6034;46.864;15.216;2022-09-09T10:53:12;19.10;99.90
1678;DHT22;6034;46.864;15.216;2022-09-09T10:55:43;19.00;99.90
1678;DHT22;6034;46.864;15.216;2022-09-09T10:58:12;19.00;99.90
1678;DHT22;6034;46.864;15.216;2022-09-09T11:00:42;18.90;99.90
1678;DHT22;6034;46.864;15.216;2022-09-09T11:03:13;18.80;99.90
1678;DHT22;6034;46.864;15.216;2022-09-09T11:05:45;19.00;99.90
1678;DHT22;6034;46.864;15.216;2022-09-09T11:08:14;19.10;99.90
1678;DHT22;6034;46.864;15.216;2022-09-09T11:10:43;19.10;99.90
1678;DHT22;6034;46.864;15.216;2022-09-09T11:13:14;19.00;99.90
1678;DHT22;6034;46.864;15.216;2022-09-09T11:15:43;18.90;99.90
1678;DHT22;6034;46.864;15.216;2022-09-09T11:18:13;19.20;99.90
1678;DHT22;6034;46.864;15.216;2022-09-09T11:20:42;19.40;99.90
1678;DHT22;6034;46.864;15.216;2022-09-09T11:23:11;19.60;99.90
1678;DHT22;6034;46.864;15.216;2022-09-09T11:25:39;19.70;99.90
1678;DHT22;6034;46.864;15.216;2022-09-09T11:28:14;19.70;99.90
1678;DHT22;6034;46.864;15.216;2022-09-09T11:30:50;19.60;99.90
1678;DHT22;6034;46.864;15.216;2022-09-09T11:38:56;19.40;99.90
1678;DHT22;6034;46.864;15.216;2022-09-09T11:41:32;19.60;99.90
1678;DHT22;6034;46.864;15.216;2022-09-09T11:43:59;19.50;99.90
1678;DHT22;6034;46.864;15.216;2022-09-09T11:46:31;19.50;99.90
1678;DHT22;6034;46.864;15.216;2022-09-09T11:49:01;19.40;99.90
1678;DHT22;6034;46.864;15.216;2022-09-09T11:51:29;19.40;99.90
1678;DHT22;6034;46.864;15.216;2022-09-09T11:53:58;19.40;99.90
1678;DHT22;6034;46.864;15.216;2022-09-09T11:56:27;19.40;99.90
1678;DHT22;6034;46.864;15.216;2022-09-09T11:58:56;19.40;99.90
1678;DHT22;6034;46.864;15.216;2022-09-09T12:04:11;19.40;99.90
1678;DHT22;6034;46.864;15.216;2022-09-09T12:06:42;19.50;99.90
1678;DHT22;6034;46.864;15.216;2022-09-09T12:09:16;19.50;99.90
1678;DHT22;6034;46.864;15.216;2022-09-09T12:11:44;19.40;99.90
1678;DHT22;6034;46.864;15.216;2022-09-09T12:14:19;19.30;99.90
1678;DHT22;6034;46.864;15.216;2022-09-09T12:16:46;19.20;99.90
1678;DHT22;6034;46.864;15.216;2022-09-09T12:19:14;19.30;99.90
1678;DHT22;6034;46.864;15.216;2022-09-09T12:21:44;19.30;99.90
1678;DHT22;6034;46.864;15.216;2022-09-09T12:24:15;19.30;99.90
1678;DHT22;6034;46.864;15.216;2022-09-09T12:26:47;19.30;99.90
1678;DHT22;6034;46.864;15.216;2022-09-09T12:29:22;19.30;99.90
1678;DHT22;6034;46.864;15.216;2022-09-09T12:31:53;19.20;99.90
1678;DHT22;6034;46.864;15.216;2022-09-09T12:34:26;19.30;99.90
1678;DHT22;6034;46.864;15.216;2022-09-09T12:36:57;19.30;99.90
1678;DHT22;6034;46.864;15.216;2022-09-09T12:39:29;19.30;99.90
1678;DHT22;6034;46.864;15.216;2022-09-09T12:41:57;19.30;99.90
1678;DHT22;6034;46.864;15.216;2022-09-09T12:44:24;19.40;99.90
1678;DHT22;6034;46.864;15.216;2022-09-09T12:46:53;19.30;99.90
1678;DHT22;6034;46.864;15.216;2022-09-09T12:49:24;19.30;99.90
1678;DHT22;6034;46.864;15.216;2022-09-09T12:51:51;19.50;99.90
1678;DHT22;6034;46.864;15.216;2022-09-09T12:54:19;19.40;99.90
1678;DHT22;6034;46.864;15.216;2022-09-09T12:56:48;19.30;99.90
1678;DHT22;6034;46.864;15.216;2022-09-09T12:59:21;19.40;99.90
1678;DHT22;6034;46.864;15.216;2022-09-09T13:01:54;19.60;99.90
1678;DHT22;6034;46.864;15.216;2022-09-09T13:04:22;19.60;99.90
1678;DHT22;6034;46.864;15.216;2022-09-09T13:06:48;19.60;99.90
1678;DHT22;6034;46.864;15.216;2022-09-09T13:09:17;19.60;99.90
1678;DHT22;6034;46.864;15.216;2022-09-09T13:11:45;19.60;99.90
1678;DHT22;6034;46.864;15.216;2022-09-09T13:14:15;19.60;99.90
1678;DHT22;6034;46.864;15.216;2022-09-09T13:16:53;19.60;99.90
1678;DHT22;6034;46.864;15.216;2022-09-09T13:19:21;19.50;99.90
1678;DHT22;6034;46.864;15.216;2022-09-09T13:21:51;19.60;99.90
1678;DHT22;6034;46.864;15.216;2022-09-09T13:24:29;19.50;99.90
1678;DHT22;6034;46.864;15.216;2022-09-09T13:26:57;19.60;99.90
1678;DHT22;6034;46.864;15.216;2022-09-09T13:29:25;19.70;99.90
1678;DHT22;6034;46.864;15.216;2022-09-09T13:31:52;19.60;99.90
1678;DHT22;6034;46.864;15.216;2022-09-09T13:34:27;19.70;99.90
1678;DHT22;6034;46.864;15.216;2022-09-09T13:36:55;19.70;99.90
1678;DHT22;6034;46.864;15.216;2022-09-09T13:39:23;19.70;99.90
1678;DHT22;6034;46.864;15.216;2022-09-09T13:41:50;19.70;99.90
1678;DHT22;6034;46.864;15.216;2022-09-09T13:44:20;19.70;99.90
1678;DHT22;6034;46.864;15.216;2022-09-09T13:47:00;19.70;99.90
1678;DHT22;6034;46.864;15.216;2022-09-09T13:49:28;19.70;99.90
1678;DHT22;6034;46.864;15.216;2022-09-09T13:52:03;19.80;99.90
1678;DHT22;6034;46.864;15.216;2022-09-09T13:54:30;19.80;99.90
1678;DHT22;6034;46.864;15.216;2022-09-09T13:56:57;19.80;99.90
1678;DHT22;6034;46.864;15.216;2022-09-09T13:59:24;19.80;99.90
1678;DHT22;6034;46.864;15.216;2022-09-09T14:01:52;19.90;99.90
1678;DHT22;6034;46.864;15.216;2022-09-09T14:04:20;19.90;99.90
1678;DHT22;6034;46.864;15.216;2022-09-09T14:06:47;19.90;99.90
1678;DHT22;6034;46.864;15.216;2022-09-09T14:09:15;19.80;99.90
1678;DHT22;6034;46.864;15.216;2022-09-09T14:11:42;19.80;99.90
1678;DHT22;6034;46.864;15.216;2022-09-09T14:14:09;19.80;99.90
1678;DHT22;6034;46.864;15.216;2022-09-09T14:16:36;19.80;99.90
1678;DHT22;6034;46.864;15.216;2022-09-09T14:19:03;19.70;99.90
1678;DHT22;6034;46.864;15.216;2022-09-09T14:21:32;19.70;99.90
1678;DHT22;6034;46.864;15.216;2022-09-09T14:24:06;19.70;99.90
1678;DHT22;6034;46.864;15.216;2022-09-09T14:26:32;19.70;99.90
1678;DHT22;6034;46.864;15.216;2022-09-09T14:28:59;19.70;99.90
1678;DHT22;6034;46.864;15.216;2022-09-09T14:31:27;19.80;99.90
1678;DHT22;6034;46.864;15.216;2022-09-09T14:33:54;19.80;99.90
1678;DHT22;6034;46.864;15.216;2022-09-09T14:36:21;19.80;99.90
1678;DHT22;6034;46.864;15.216;2022-09-09T14:38:49;19.60;99.90
1678;DHT22;6034;46.864;15.216;2022-09-09T14:41:17;19.50;99.90
1678;DHT22;6034;46.864;15.216;2022-09-09T14:43:45;19.50;99.90
1678;DHT22;6034;46.864;15.216;2022-09-09T14:46:13;19.50;99.90
1678;DHT22;6034;46.864;15.216;2022-09-09T14:48:40;19.40;99.90
1678;DHT22;6034;46.864;15.216;2022-09-09T14:51:07;19.40;99.90
1678;DHT22;6034;46.864;15.216;2022-09-09T14:53:34;19.40;99.90
1678;DHT22;6034;46.864;15.216;2022-09-09T14:56:07;19.40;99.90
1678;DHT22;6034;46.864;15.216;2022-09-09T14:58:34;19.50;99.90
1678;DHT22;6034;46.864;15.216;2022-09-09T15:01:02;19.40;99.90
1678;DHT22;6034;46.864;15.216;2022-09-09T15:03:29;19.40;99.90
1678;DHT22;6034;46.864;15.216;2022-09-09T15:05:56;19.50;99.90
1678;DHT22;6034;46.864;15.216;2022-09-09T15:08:24;19.50;99.90
1678;DHT22;6034;46.864;15.216;2022-09-09T15:10:58;19.10;99.90
1678;DHT22;6034;46.864;15.216;2022-09-09T15:13:26;19.10;99.90
1678;DHT22;6034;46.864;15.216;2022-09-09T15:15:53;19.20;99.90
1678;DHT22;6034;46.864;15.216;2022-09-09T15:18:20;19.00;99.90
1678;DHT22;6034;46.864;15.216;2022-09-09T15:20:47;19.30;99.90
1678;DHT22;6034;46.864;15.216;2022-09-09T15:23:15;19.30;99.90
1678;DHT22;6034;46.864;15.216;2022-09-09T15:25:49;19.40;99.90
1678;DHT22;6034;46.864;15.216;2022-09-09T15:28:17;19.50;99.90
1678;DHT22;6034;46.864;15.216;2022-09-09T15:30:48;19.40;99.90
1678;DHT22;6034;46.864;15.216;2022-09-09T15:33:15;19.40;99.90
1678;DHT22;6034;46.864;15.216;2022-09-09T15:35:42;19.50;99.90
1678;DHT22;6034;46.864;15.216;2022-09-09T15:38:09;19.60;99.90
1678;DHT22;6034;46.864;15.216;2022-09-09T15:40:38;19.50;99.90
1678;DHT22;6034;46.864;15.216;2022-09-09T15:43:06;19.50;99.90
1678;DHT22;6034;46.864;15.216;2022-09-09T15:45:34;19.50;99.90
1678;DHT22;6034;46.864;15.216;2022-09-09T15:48:03;19.50;99.90
1678;DHT22;6034;46.864;15.216;2022-09-09T15:50:30;19.40;99.90
1678;DHT22;6034;46.864;15.216;2022-09-09T15:52:58;19.30;99.90
1678;DHT22;6034;46.864;15.216;2022-09-09T15:55:25;19.30;99.90
1678;DHT22;6034;46.864;15.216;2022-09-09T15:57:52;19.30;99.90
1678;DHT22;6034;46.864;15.216;2022-09-09T16:00:20;19.40;99.90
1678;DHT22;6034;46.864;15.216;2022-09-09T16:02:48;19.40;99.90
1678;DHT22;6034;46.864;15.216;2022-09-09T16:05:16;19.40;99.90
1678;DHT22;6034;46.864;15.216;2022-09-09T16:07:43;19.30;99.90
1678;DHT22;6034;46.864;15.216;2022-09-09T16:10:10;19.40;99.90
1678;DHT22;6034;46.864;15.216;2022-09-09T16:12:40;19.40;99.90
1678;DHT22;6034;46.864;15.216;2022-09-09T16:15:07;19.40;99.90
1678;DHT22;6034;46.864;15.216;2022-09-09T16:17:34;19.30;99.90
1678;DHT22;6034;46.864;15.216;2022-09-09T16:22:33;19.30;99.90
1678;DHT22;6034;46.864;15.216;2022-09-09T16:25:00;19.30;99.90
1678;DHT22;6034;46.864;15.216;2022-09-09T16:27:27;19.30;99.90
1678;DHT22;6034;46.864;15.216;2022-09-09T16:29:54;19.20;99.90
1678;DHT22;6034;46.864;15.216;2022-09-09T16:32:21;19.20;99.90
1678;DHT22;6034;46.864;15.216;2022-09-09T16:34:47;19.20;99.90
1678;DHT22;6034;46.864;15.216;2022-09-09T16:37:14;19.20;99.90
1678;DHT22;6034;46.864;15.216;2022-09-09T16:39:44;19.20;99.90
1678;DHT22;6034;46.864;15.216;2022-09-09T16:42:11;19.30;99.90
1678;DHT22;6034;46.864;15.216;2022-09-09T16:44:38;19.20;99.90
1678;DHT22;6034;46.864;15.216;2022-09-09T16:47:05;19.20;99.90
1678;DHT22;6034;46.864;15.216;2022-09-09T16:49:32;19.20;99.90
1678;DHT22;6034;46.864;15.216;2022-09-09T16:51:59;19.20;99.90
1678;DHT22;6034;46.864;15.216;2022-09-09T16:54:27;19.20;99.90
1678;DHT22;6034;46.864;15.216;2022-09-09T16:56:55;19.10;99.90
1678;DHT22;6034;46.864;15.216;2022-09-09T16:59:22;19.20;99.90
1678;DHT22;6034;46.864;15.216;2022-09-09T17:01:50;19.20;99.90
1678;DHT22;6034;46.864;15.216;2022-09-09T17:04:18;19.20;99.90
1678;DHT22;6034;46.864;15.216;2022-09-09T17:06:47;19.10;99.90
1678;DHT22;6034;46.864;15.216;2022-09-09T17:09:14;19.10;99.90
1678;DHT22;6034;46.864;15.216;2022-09-09T17:11:41;19.00;99.90
1678;DHT22;6034;46.864;15.216;2022-09-09T17:14:11;19.00;99.90
1678;DHT22;6034;46.864;15.216;2022-09-09T17:16:39;19.00;99.90
1678;DHT22;6034;46.864;15.216;2022-09-09T17:19:06;18.90;99.90
1678;DHT22;6034;46.864;15.216;2022-09-09T17:21:34;18.80;99.90
1678;DHT22;6034;46.864;15.216;2022-09-09T17:24:02;18.80;99.90
1678;DHT22;6034;46.864;15.216;2022-09-09T17:26:31;18.70;99.90
1678;DHT22;6034;46.864;15.216;2022-09-09T17:28:59;18.80;99.90
1678;DHT22;6034;46.864;15.216;2022-09-09T17:31:28;18.80;99.90
1678;DHT22;6034;46.864;15.216;2022-09-09T17:33:55;18.70;99.90
1678;DHT22;6034;46.864;15.216;2022-09-09T17:36:25;18.80;99.90
1678;DHT22;6034;46.864;15.216;2022-09-09T17:38:52;18.70;99.90
1678;DHT22;6034;46.864;15.216;2022-09-09T17:41:21;18.60;99.90
1678;DHT22;6034;46.864;15.216;2022-09-09T17:43:48;18.70;99.90
1678;DHT22;6034;46.864;15.216;2022-09-09T17:46:16;18.70;99.90
1678;DHT22;6034;46.864;15.216;2022-09-09T17:48:46;18.70;99.90
1678;DHT22;6034;46.864;15.216;2022-09-09T17:51:15;18.70;99.90
1678;DHT22;6034;46.864;15.216;2022-09-09T17:53:45;18.70;99.90
1678;DHT22;6034;46.864;15.216;2022-09-09T17:56:13;18.70;99.90
1678;DHT22;6034;46.864;15.216;2022-09-09T17:58:40;18.60;99.90
1678;DHT22;6034;46.864;15.216;2022-09-09T18:01:10;18.60;99.90
1678;DHT22;6034;46.864;15.216;2022-09-09T18:03:38;18.60;99.90
1678;DHT22;6034;46.864;15.216;2022-09-09T18:06:10;18.60;99.90
1678;DHT22;6034;46.864;15.216;2022-09-09T18:08:38;18.60;99.90
1678;DHT22;6034;46.864;15.216;2022-09-09T18:11:06;18.50;99.90
1678;DHT22;6034;46.864;15.216;2022-09-09T18:13:33;18.40;99.90
1678;DHT22;6034;46.864;15.216;2022-09-09T18:16:00;17.40;99.90
1678;DHT22;6034;46.864;15.216;2022-09-09T18:18:28;18.30;99.90
1678;DHT22;6034;46.864;15.216;2022-09-09T18:20:56;18.20;99.90
1678;DHT22;6034;46.864;15.216;2022-09-09T18:23:24;18.20;99.90
1678;DHT22;6034;46.864;15.216;2022-09-09T18:25:51;18.20;99.90
1678;DHT22;6034;46.864;15.216;2022-09-09T18:28:19;18.20;99.90
1678;DHT22;6034;46.864;15.216;2022-09-09T18:30:47;18.20;99.90
1678;DHT22;6034;46.864;15.216;2022-09-09T18:33:15;18.20;99.90
1678;DHT22;6034;46.864;15.216;2022-09-09T18:35:42;18.30;99.90
1678;DHT22;6034;46.864;15.216;2022-09-09T18:38:11;18.30;99.90
1678;DHT22;6034;46.864;15.216;2022-09-09T18:40:39;18.20;99.90
1678;DHT22;6034;46.864;15.216;2022-09-09T18:43:06;18.10;99.90
1678;DHT22;6034;46.864;15.216;2022-09-09T18:45:34;18.00;99.90
1678;DHT22;6034;46.864;15.216;2022-09-09T18:48:02;18.20;99.90
1678;DHT22;6034;46.864;15.216;2022-09-09T18:50:29;18.20;99.90
1678;DHT22;6034;46.864;15.216;2022-09-09T18:52:57;18.20;99.90
1678;DHT22;6034;46.864;15.216;2022-09-09T18:55:24;18.20;99.90
1678;DHT22;6034;46.864;15.216;2022-09-09T18:57:52;18.20;99.90
1678;DHT22;6034;46.864;15.216;2022-09-09T19:00:19;18.20;99.90
1678;DHT22;6034;46.864;15.216;2022-09-09T19:02:47;18.20;99.90
1678;DHT22;6034;46.864;15.216;2022-09-09T19:05:16;18.30;99.90
1678;DHT22;6034;46.864;15.216;2022-09-09T19:07:43;18.20;99.90
1678;DHT22;6034;46.864;15.216;2022-09-09T19:10:10;18.20;99.90
1678;DHT22;6034;46.864;15.216;2022-09-09T19:12:37;18.10;99.90
1678;DHT22;6034;46.864;15.216;2022-09-09T19:15:07;18.10;99.90
1678;DHT22;6034;46.864;15.216;2022-09-09T19:17:34;17.90;99.90
1678;DHT22;6034;46.864;15.216;2022-09-09T19:20:01;17.90;99.90
1678;DHT22;6034;46.864;15.216;2022-09-09T19:22:29;18.00;99.90
1678;DHT22;6034;46.864;15.216;2022-09-09T19:24:56;17.90;99.90
1678;DHT22;6034;46.864;15.216;2022-09-09T19:27:23;17.80;99.90
1678;DHT22;6034;46.864;15.216;2022-09-09T19:29:52;17.80;99.90
1678;DHT22;6034;46.864;15.216;2022-09-09T19:32:20;17.80;99.90
1678;DHT22;6034;46.864;15.216;2022-09-09T19:34:47;17.70;99.90
1678;DHT22;6034;46.864;15.216;2022-09-09T19:37:14;17.80;99.90
1678;DHT22;6034;46.864;15.216;2022-09-09T19:39:41;17.70;99.90
1678;DHT22;6034;46.864;15.216;2022-09-09T19:42:08;17.60;99.90
1678;DHT22;6034;46.864;15.216;2022-09-09T19:44:35;17.70;99.90
1678;DHT22;6034;46.864;15.216;2022-09-09T19:47:02;17.70;99.90
1678;DHT22;6034;46.864;15.216;2022-09-09T19:49:31;17.80;99.90
1678;DHT22;6034;46.864;15.216;2022-09-09T19:51:59;17.80;99.90
1678;DHT22;6034;46.864;15.216;2022-09-09T19:54:26;17.80;99.90
1678;DHT22;6034;46.864;15.216;2022-09-09T19:56:53;17.80;99.90
1678;DHT22;6034;46.864;15.216;2022-09-09T19:59:21;17.80;99.90
1678;DHT22;6034;46.864;15.216;2022-09-09T20:01:48;17.80;99.90
1678;DHT22;6034;46.864;15.216;2022-09-09T20:04:15;17.70;99.90
1678;DHT22;6034;46.864;15.216;2022-09-09T20:06:44;17.60;99.90
1678;DHT22;6034;46.864;15.216;2022-09-09T20:09:11;17.70;99.90
1678;DHT22;6034;46.864;15.216;2022-09-09T20:11:40;17.70;99.90
1678;DHT22;6034;46.864;15.216;2022-09-09T20:14:07;17.70;99.90
1678;DHT22;6034;46.864;15.216;2022-09-09T20:16:34;17.70;99.90
1678;DHT22;6034;46.864;15.216;2022-09-09T20:19:02;17.60;99.90
1678;DHT22;6034;46.864;15.216;2022-09-09T20:21:30;17.40;99.90
1678;DHT22;6034;46.864;15.216;2022-09-09T20:23:59;17.30;99.90
1678;DHT22;6034;46.864;15.216;2022-09-09T20:26:27;17.40;99.90
1678;DHT22;6034;46.864;15.216;2022-09-09T20:28:55;17.50;99.90
1678;DHT22;6034;46.864;15.216;2022-09-09T20:31:23;17.30;99.90
1678;DHT22;6034;46.864;15.216;2022-09-09T20:33:51;17.20;99.90
1678;DHT22;6034;46.864;15.216;2022-09-09T20:36:19;17.30;99.90
1678;DHT22;6034;46.864;15.216;2022-09-09T20:38:47;17.30;99.90
1678;DHT22;6034;46.864;15.216;2022-09-09T20:41:16;17.30;99.90
1678;DHT22;6034;46.864;15.216;2022-09-09T20:43:46;17.20;99.90
1678;DHT22;6034;46.864;15.216;2022-09-09T20:46:13;17.30;99.90
1678;DHT22;6034;46.864;15.216;2022-09-09T20:48:42;17.20;99.90
1678;DHT22;6034;46.864;15.216;2022-09-09T20:51:09;17.30;99.90
1678;DHT22;6034;46.864;15.216;2022-09-09T20:53:37;17.20;99.90
1678;DHT22;6034;46.864;15.216;2022-09-09T20:56:05;17.20;99.90
1678;DHT22;6034;46.864;15.216;2022-09-09T20:58:33;17.10;99.90
1678;DHT22;6034;46.864;15.216;2022-09-09T21:01:00;17.20;99.90
1678;DHT22;6034;46.864;15.216;2022-09-09T21:03:28;17.20;99.90
1678;DHT22;6034;46.864;15.216;2022-09-09T21:05:56;17.00;99.90
1678;DHT22;6034;46.864;15.216;2022-09-09T21:08:26;17.20;99.90
1678;DHT22;6034;46.864;15.216;2022-09-09T21:10:54;17.20;99.90